Time;durP1;ratioP1;P1;durP2;ratioP2;P2;SDS_P1;SDS_P2;PMS_P1;PMS_P2;Temp;Humidity;BMP_temperature;BMP_pressure;BME280_temperature;BME280_humidity;BME280_pressure;Samples;Min_cycle;Max_cycle;Signal;HPM_P1;HPM_P2
2022/12/17 13:05:59;;;;;;;;;;;7.80;99.90;;;;;;5073350;28;19969;-72
2022/12/17 13:08:25;;;;;;;;;;;7.80;99.90;;;;;;5075060;28;19932;-72
2022/12/17 13:10:51;;;;;;;;;;;7.70;99.90;;;;;;5068317;28;19913;-71
2022/12/17 13:13:17;;;;;;;;;;;7.70;99.90;;;;;;5063888;28;19917;-71
2022/12/17 13:15:45;;;;;;;;;;;7.70;99.90;;;;;;5069556;28;19913;-71
2022/12/17 13:18:15;;;;;;;;;;;7.70;99.90;;;;;;5071758;28;19931;-71
2022/12/17 13:20:40;;;;;;;;;;;7.80;99.90;;;;;;5067222;28;19919;-71
2022/12/17 13:23:09;;;;;;;;;;;7.80;99.90;;;;;;5068706;28;19912;-72
2022/12/17 13:25:34;;;;;;;;;;;7.80;99.90;;;;;;5071557;28;19930;-70
2022/12/17 13:28:00;;;;;;;;;;;7.80;99.90;;;;;;5074508;28;19917;-70
2022/12/17 13:30:29;;;;;;;;;;;7.90;99.90;;;;;;5063171;28;19952;-71
2022/12/17 13:33:13;;;;;;;;;;;7.90;99.90;;;;;;5061207;28;20387;-71
2022/12/17 13:35:42;;;;;;;;;;;7.90;99.90;;;;;;5068725;28;19965;-72
2022/12/17 13:38:08;;;;;;;;;;;7.90;99.90;;;;;;5071422;28;19913;-72
2022/12/17 13:40:43;;;;;;;;;;;7.90;99.90;;;;;;5070126;28;19935;-72
2022/12/17 13:43:17;;;;;;;;;;;7.90;99.90;;;;;;5072199;28;19942;-72
2022/12/17 13:45:43;;;;;;;;;;;8.00;99.90;;;;;;5071482;28;19928;-72
2022/12/17 13:48:17;;;;;;;;;;;8.00;99.90;;;;;;5072700;28;20275;-72
2022/12/17 13:50:51;;;;;;;;;;;8.00;99.90;;;;;;5067115;28;19912;-72
2022/12/17 13:53:17;;;;;;;;;;;8.00;99.90;;;;;;5067171;28;19913;-72
2022/12/17 13:55:51;;;;;;;;;;;8.00;99.90;;;;;;5066524;28;20443;-72
2022/12/17 13:58:30;;;;;;;;;;;8.00;99.90;;;;;;5065728;28;19917;-72
2022/12/17 14:01:03;;;;;;;;;;;8.00;99.90;;;;;;5069167;28;19966;-72
2022/12/17 14:03:28;;;;;;;;;;;8.00;99.90;;;;;;5060753;28;19924;-72
2022/12/17 14:05:54;;;;;;;;;;;8.00;99.90;;;;;;5058403;28;19913;-72
2022/12/17 14:08:27;;;;;;;;;;;8.00;99.90;;;;;;5053345;28;19919;-72
2022/12/17 14:12:20;;;;;;;;;;;8.00;99.90;;;;;;5059344;28;19916;-72
2022/12/17 14:13:41;;;;;;;;;;;8.10;99.90;;;;;;5062276;28;20603;-72
2022/12/17 14:16:07;;;;;;;;;;;8.00;99.90;;;;;;5071320;28;19999;-72
2022/12/17 14:18:33;;;;;;;;;;;8.00;99.90;;;;;;5069053;28;19959;-72
2022/12/17 14:20:59;;;;;;;;;;;8.10;99.90;;;;;;5070043;28;19908;-72
2022/12/17 14:23:28;;;;;;;;;;;8.10;99.90;;;;;;5069358;28;19987;-72
2022/12/17 14:25:54;;;;;;;;;;;8.20;99.90;;;;;;5065017;28;19925;-72
2022/12/17 14:28:24;;;;;;;;;;;8.20;99.90;;;;;;5070128;28;20449;-72
2022/12/17 14:30:50;;;;;;;;;;;8.20;99.90;;;;;;5071820;28;19912;-72
2022/12/17 14:33:29;;;;;;;;;;;8.20;99.90;;;;;;5070643;28;19916;-72
2022/12/17 14:35:56;;;;;;;;;;;8.30;99.90;;;;;;5067701;28;19908;-72
2022/12/17 14:38:23;;;;;;;;;;;8.30;99.90;;;;;;5068989;28;19919;-72
2022/12/17 14:40:49;;;;;;;;;;;8.30;99.90;;;;;;5067592;28;19960;-72
2022/12/17 14:43:14;;;;;;;;;;;8.30;99.90;;;;;;5071645;28;19952;-71
2022/12/17 14:49:02;;;;;;;;;;;8.30;99.90;;;;;;5071923;28;20327;-72
2022/12/17 14:51:32;;;;;;;;;;;8.20;99.90;;;;;;5064471;28;19927;-72
2022/12/17 14:54:13;;;;;;;;;;;8.30;99.90;;;;;;5071975;28;19923;-72
2022/12/17 14:56:43;;;;;;;;;;;8.20;99.90;;;;;;5069908;28;19917;-72
2022/12/17 14:59:27;;;;;;;;;;;8.20;99.90;;;;;;5070102;28;19908;-72
2022/12/17 15:01:53;;;;;;;;;;;8.20;99.90;;;;;;5065541;28;19917;-72
2022/12/17 15:04:20;;;;;;;;;;;8.30;99.90;;;;;;5063732;28;19917;-72
2022/12/17 15:06:45;;;;;;;;;;;8.20;99.90;;;;;;5062026;28;20284;-72
2022/12/17 15:09:12;;;;;;;;;;;8.20;99.90;;;;;;5057351;28;19909;-72
2022/12/17 15:11:38;;;;;;;;;;;8.10;99.90;;;;;;5056576;28;19919;-72
2022/12/17 15:14:03;;;;;;;;;;;8.10;99.90;;;;;;5055746;28;19908;-72
2022/12/17 15:16:29;;;;;;;;;;;8.10;99.90;;;;;;5073249;28;20382;-72
2022/12/17 15:18:55;;;;;;;;;;;8.20;99.90;;;;;;5075597;28;20356;-72
2022/12/17 15:21:21;;;;;;;;;;;8.10;99.90;;;;;;5073435;28;19912;-72
2022/12/17 15:23:47;;;;;;;;;;;8.10;99.90;;;;;;5067735;28;19923;-72
2022/12/17 15:26:14;;;;;;;;;;;8.10;99.90;;;;;;5055022;28;19908;-72
2022/12/17 15:28:42;;;;;;;;;;;8.10;99.90;;;;;;5066593;28;19921;-72
2022/12/17 15:31:12;;;;;;;;;;;8.10;99.90;;;;;;5054415;28;19917;-72
2022/12/17 15:33:37;;;;;;;;;;;8.00;99.90;;;;;;5075305;28;20171;-72
2022/12/17 15:36:03;;;;;;;;;;;8.10;99.90;;;;;;5071753;28;20370;-72
2022/12/17 15:38:32;;;;;;;;;;;8.10;99.90;;;;;;5071540;28;19932;-72
2022/12/17 15:43:09;;;;;;;;;;;8.10;99.90;;;;;;5071237;28;20436;-72
2022/12/17 15:43:47;;;;;;;;;;;8.10;99.90;;;;;;5070910;28;19985;-71
2022/12/17 15:46:12;;;;;;;;;;;8.10;99.90;;;;;;5067533;28;20292;-72
2022/12/17 15:48:38;;;;;;;;;;;8.10;99.90;;;;;;5067137;28;19916;-72
2022/12/17 15:51:04;;;;;;;;;;;8.10;99.90;;;;;;5072764;28;19954;-72
2022/12/17 15:53:29;;;;;;;;;;;8.10;99.90;;;;;;5069311;28;19977;-72
2022/12/17 15:56:02;;;;;;;;;;;8.10;99.90;;;;;;5070868;28;19947;-72
2022/12/17 15:58:28;;;;;;;;;;;8.10;99.90;;;;;;5069001;28;19923;-72
2022/12/17 16:00:53;;;;;;;;;;;8.10;99.90;;;;;;5069743;28;19912;-72
2022/12/17 16:03:19;;;;;;;;;;;8.00;99.90;;;;;;5068401;28;19916;-72
2022/12/17 16:05:45;;;;;;;;;;;8.00;99.90;;;;;;5072009;28;19912;-72
2022/12/17 16:08:10;;;;;;;;;;;8.00;99.90;;;;;;5073026;28;20003;-72
2022/12/17 16:10:36;;;;;;;;;;;8.00;99.90;;;;;;5058953;28;19913;-72
2022/12/17 16:13:02;;;;;;;;;;;8.00;99.90;;;;;;5059038;28;19917;-72
2022/12/17 16:15:27;;;;;;;;;;;8.00;99.90;;;;;;5072627;28;19912;-72
2022/12/17 16:17:53;;;;;;;;;;;8.10;99.90;;;;;;5071850;28;20011;-72
2022/12/17 16:20:19;;;;;;;;;;;8.10;99.90;;;;;;5072757;28;19915;-72
2022/12/17 16:22:45;;;;;;;;;;;8.10;99.90;;;;;;5069387;28;19931;-72
2022/12/17 16:25:10;;;;;;;;;;;8.00;99.90;;;;;;5053149;28;19910;-72
2022/12/17 16:27:36;;;;;;;;;;;8.00;99.90;;;;;;5037853;28;20119;-72
2022/12/17 16:30:02;;;;;;;;;;;8.10;99.90;;;;;;5063479;28;19913;-72
2022/12/17 16:32:28;;;;;;;;;;;8.10;99.90;;;;;;5058706;28;19974;-72
2022/12/17 16:34:53;;;;;;;;;;;8.10;99.90;;;;;;5079133;28;19908;-72
2022/12/17 16:37:19;;;;;;;;;;;8.00;99.90;;;;;;5067289;28;19956;-72
2022/12/17 16:39:45;;;;;;;;;;;8.00;99.90;;;;;;5072333;28;20024;-72
2022/12/17 16:42:10;;;;;;;;;;;8.00;99.90;;;;;;5069958;28;19916;-72
2022/12/17 16:44:36;;;;;;;;;;;8.00;99.90;;;;;;5070644;28;19987;-72
2022/12/17 16:47:02;;;;;;;;;;;8.00;99.90;;;;;;5054009;28;19966;-71
2022/12/17 16:49:28;;;;;;;;;;;8.00;99.90;;;;;;5071054;28;20019;-72
2022/12/17 16:51:54;;;;;;;;;;;7.90;99.90;;;;;;5068221;28;19958;-72
2022/12/17 16:54:21;;;;;;;;;;;7.90;99.90;;;;;;5068207;28;19935;-72
2022/12/17 16:56:47;;;;;;;;;;;7.90;99.90;;;;;;5069203;28;19924;-72
2022/12/17 16:59:13;;;;;;;;;;;7.90;99.90;;;;;;5071034;28;19927;-72
2022/12/17 17:01:40;;;;;;;;;;;7.90;99.90;;;;;;5069366;28;20007;-72
2022/12/17 17:04:06;;;;;;;;;;;7.90;99.90;;;;;;5048844;28;19923;-72
2022/12/17 17:06:36;;;;;;;;;;;7.90;99.90;;;;;;5049988;28;20269;-72
2022/12/17 17:09:05;;;;;;;;;;;7.80;99.90;;;;;;5057031;28;19931;-72
2022/12/17 17:11:30;;;;;;;;;;;7.90;99.90;;;;;;5063505;28;19932;-72
2022/12/17 17:13:56;;;;;;;;;;;7.90;99.90;;;;;;5051865;28;20273;-72
2022/12/17 17:16:23;;;;;;;;;;;7.80;99.90;;;;;;5063822;28;19913;-72
2022/12/17 17:18:49;;;;;;;;;;;7.80;99.90;;;;;;5057957;28;20436;-72
2022/12/17 17:21:22;;;;;;;;;;;7.70;99.90;;;;;;5064625;28;19913;-72
2022/12/17 17:23:49;;;;;;;;;;;7.60;99.90;;;;;;5063777;28;20060;-72
2022/12/17 17:26:15;;;;;;;;;;;7.60;99.90;;;;;;5056435;28;19958;-72
2022/12/17 17:28:41;;;;;;;;;;;7.50;99.90;;;;;;5070066;28;20013;-72
2022/12/17 17:31:09;;;;;;;;;;;7.50;99.90;;;;;;5075994;28;19909;-72
2022/12/17 17:33:36;;;;;;;;;;;7.50;99.90;;;;;;5063231;28;19919;-72
2022/12/17 17:36:05;;;;;;;;;;;7.50;99.90;;;;;;5055677;28;19928;-72
2022/12/17 17:38:32;;;;;;;;;;;7.40;99.90;;;;;;5062448;28;19935;-72
2022/12/17 17:40:58;;;;;;;;;;;7.40;99.90;;;;;;5070719;28;20352;-72
2022/12/17 17:43:24;;;;;;;;;;;7.40;99.90;;;;;;5074725;28;19944;-72
2022/12/17 17:45:49;;;;;;;;;;;7.40;99.90;;;;;;5060178;28;19912;-72
2022/12/17 17:48:15;;;;;;;;;;;7.40;99.90;;;;;;5068003;28;19917;-72
2022/12/17 17:50:40;;;;;;;;;;;7.40;99.90;;;;;;5074040;28;19919;-71
2022/12/17 17:53:07;;;;;;;;;;;7.30;99.90;;;;;;5065922;28;19917;-71
2022/12/17 17:55:33;;;;;;;;;;;7.30;99.90;;;;;;5074064;28;20043;-72
2022/12/17 17:57:59;;;;;;;;;;;7.20;99.90;;;;;;5071012;28;20375;-72
2022/12/17 18:00:24;;;;;;;;;;;7.20;99.90;;;;;;5066604;28;19938;-72
2022/12/17 18:02:50;;;;;;;;;;;7.10;99.90;;;;;;5070872;28;19917;-71
2022/12/17 18:05:18;;;;;;;;;;;7.10;99.90;;;;;;5074125;28;20010;-71
2022/12/17 18:07:44;;;;;;;;;;;7.00;99.90;;;;;;5071924;28;20036;-72
2022/12/17 18:10:09;;;;;;;;;;;7.00;99.90;;;;;;5075154;28;19943;-72
2022/12/17 18:15:19;;;;;;;;;;;6.90;99.90;;;;;;5072163;28;20403;-72
2022/12/17 18:17:45;;;;;;;;;;;6.90;99.90;;;;;;5069189;28;19913;-72
2022/12/17 18:20:11;;;;;;;;;;;6.90;99.90;;;;;;5055941;28;20362;-72
2022/12/17 18:22:37;;;;;;;;;;;6.90;99.90;;;;;;5073485;28;19960;-72
2022/12/17 18:25:03;;;;;;;;;;;6.90;99.90;;;;;;5068642;28;19920;-72
2022/12/17 18:27:29;;;;;;;;;;;6.90;99.90;;;;;;5072151;28;19913;-71
2022/12/17 18:29:55;;;;;;;;;;;7.00;99.90;;;;;;5073486;28;19909;-72
2022/12/17 18:32:20;;;;;;;;;;;7.00;99.90;;;;;;5071974;28;20287;-72
2022/12/17 18:34:46;;;;;;;;;;;7.00;99.90;;;;;;5074288;28;19935;-72
2022/12/17 18:37:12;;;;;;;;;;;7.10;99.90;;;;;;5069592;28;19912;-71
2022/12/17 18:39:38;;;;;;;;;;;7.10;99.90;;;;;;5072169;28;19966;-70
2022/12/17 18:44:51;;;;;;;;;;;7.10;99.90;;;;;;5074427;28;19920;-70
2022/12/17 18:47:20;;;;;;;;;;;7.20;99.90;;;;;;5068694;28;19920;-71
2022/12/17 18:49:46;;;;;;;;;;;7.20;99.90;;;;;;5074104;28;19912;-70
2022/12/17 18:52:11;;;;;;;;;;;7.30;99.90;;;;;;5068599;28;19912;-71
2022/12/17 18:54:38;;;;;;;;;;;7.30;99.90;;;;;;5072381;28;19913;-72
2022/12/17 18:57:04;;;;;;;;;;;7.30;99.90;;;;;;5072044;28;19967;-71
2022/12/17 18:59:30;;;;;;;;;;;7.30;99.90;;;;;;5050207;28;19928;-70
2022/12/17 19:01:59;;;;;;;;;;;7.30;99.90;;;;;;5081310;28;19916;-71
2022/12/17 19:04:25;;;;;;;;;;;7.30;99.90;;;;;;5069745;28;19928;-71
2022/12/17 19:06:52;;;;;;;;;;;7.30;99.90;;;;;;5071504;28;19912;-71
2022/12/17 19:09:19;;;;;;;;;;;7.40;99.90;;;;;;5071982;28;19916;-71
2022/12/17 19:11:45;;;;;;;;;;;7.40;99.90;;;;;;5068897;28;19912;-71
2022/12/17 19:14:11;;;;;;;;;;;7.30;99.90;;;;;;5062454;28;19939;-71
2022/12/17 19:16:37;;;;;;;;;;;7.40;99.90;;;;;;5066275;28;20011;-71
2022/12/17 19:19:03;;;;;;;;;;;7.40;99.90;;;;;;5066026;28;19923;-71
2022/12/17 19:21:29;;;;;;;;;;;7.30;99.90;;;;;;5071961;28;19958;-71
2022/12/17 19:24:05;;;;;;;;;;;7.40;99.90;;;;;;5070854;28;19916;-72
2022/12/17 19:26:31;;;;;;;;;;;7.40;99.90;;;;;;5064805;28;19931;-71
2022/12/17 19:28:57;;;;;;;;;;;7.50;99.90;;;;;;5070698;28;19913;-71
2022/12/17 19:31:24;;;;;;;;;;;7.40;99.90;;;;;;5068028;28;19920;-71
2022/12/17 19:33:54;;;;;;;;;;;7.40;99.90;;;;;;5068517;28;19920;-71
2022/12/17 19:36:28;;;;;;;;;;;7.40;99.90;;;;;;5068589;28;19947;-75
2022/12/17 19:39:07;;;;;;;;;;;7.40;99.90;;;;;;5048465;28;20062;-71
2022/12/17 19:41:33;;;;;;;;;;;7.40;99.90;;;;;;5069805;28;19973;-71
2022/12/17 19:44:10;;;;;;;;;;;7.40;99.90;;;;;;5069817;28;19920;-71
2022/12/17 19:46:36;;;;;;;;;;;7.40;99.90;;;;;;5068697;28;20275;-71
2022/12/17 19:49:02;;;;;;;;;;;7.40;99.90;;;;;;5067809;28;19912;-71
2022/12/17 19:51:29;;;;;;;;;;;7.40;99.90;;;;;;5068974;28;19982;-71
2022/12/17 19:53:55;;;;;;;;;;;7.50;99.90;;;;;;5064411;28;19920;-71
2022/12/17 19:56:28;;;;;;;;;;;7.50;99.90;;;;;;5050829;28;19962;-73
2022/12/17 19:58:55;;;;;;;;;;;7.50;99.90;;;;;;5063989;28;20498;-72
2022/12/17 20:01:25;;;;;;;;;;;7.50;99.90;;;;;;5070395;28;19920;-72
2022/12/17 20:03:51;;;;;;;;;;;7.50;99.90;;;;;;5071743;28;19923;-76
2022/12/17 20:06:18;;;;;;;;;;;7.40;99.90;;;;;;5062382;28;21625;-72
2022/12/17 20:08:46;;;;;;;;;;;7.40;99.90;;;;;;5063242;28;19913;-71
2022/12/17 20:11:31;;;;;;;;;;;7.40;99.90;;;;;;5069032;28;19919;-71
2022/12/17 20:13:58;;;;;;;;;;;7.40;99.90;;;;;;5062071;28;19995;-73
2022/12/17 20:16:24;;;;;;;;;;;7.40;99.90;;;;;;5051385;28;19923;-71
2022/12/17 20:18:50;;;;;;;;;;;7.40;99.90;;;;;;5064632;28;20252;-71
2022/12/17 20:21:16;;;;;;;;;;;7.40;99.90;;;;;;5050246;28;20002;-72
2022/12/17 20:23:44;;;;;;;;;;;7.40;99.90;;;;;;5064808;28;19970;-72
2022/12/17 20:26:10;;;;;;;;;;;7.40;99.90;;;;;;5060698;28;20426;-71
2022/12/17 20:28:39;;;;;;;;;;;7.30;99.90;;;;;;5066868;28;20007;-74
2022/12/17 20:31:05;;;;;;;;;;;7.30;99.90;;;;;;5071054;28;19987;-71
2022/12/17 20:33:30;;;;;;;;;;;7.30;99.90;;;;;;5072529;28;19958;-71
2022/12/17 20:36:02;;;;;;;;;;;7.30;99.90;;;;;;5070239;28;19917;-72
2022/12/17 20:38:28;;;;;;;;;;;7.30;99.90;;;;;;5068283;28;19912;-72
2022/12/17 20:40:53;;;;;;;;;;;7.20;99.90;;;;;;5052529;28;20295;-72
2022/12/17 20:43:19;;;;;;;;;;;7.30;99.90;;;;;;5066256;28;19923;-72
2022/12/17 20:45:49;;;;;;;;;;;7.20;99.90;;;;;;5071715;28;19913;-72
2022/12/17 20:48:14;;;;;;;;;;;7.20;99.90;;;;;;5058949;28;19913;-71
2022/12/17 20:50:40;;;;;;;;;;;7.20;99.90;;;;;;5067345;28;19938;-71
2022/12/17 20:53:06;;;;;;;;;;;7.10;99.90;;;;;;5072997;28;19913;-72
2022/12/17 20:55:31;;;;;;;;;;;7.10;99.90;;;;;;5068167;28;20386;-71
2022/12/17 20:57:57;;;;;;;;;;;7.10;99.90;;;;;;5067076;28;19924;-72
2022/12/17 21:00:23;;;;;;;;;;;7.20;99.90;;;;;;5071807;28;19909;-72
2022/12/17 21:02:49;;;;;;;;;;;7.20;99.90;;;;;;5072593;28;19924;-71
2022/12/17 21:05:16;;;;;;;;;;;7.20;99.90;;;;;;5073201;28;19912;-71
2022/12/17 21:07:43;;;;;;;;;;;7.20;99.90;;;;;;5074124;28;20398;-72
2022/12/17 21:10:08;;;;;;;;;;;7.20;99.90;;;;;;5073257;28;19963;-72
2022/12/17 21:15:18;;;;;;;;;;;7.20;99.90;;;;;;5069522;28;19924;-72
2022/12/17 21:17:44;;;;;;;;;;;7.20;99.90;;;;;;5073524;28;20296;-72
2022/12/17 21:20:10;;;;;;;;;;;7.20;99.90;;;;;;5074830;28;19912;-72
2022/12/17 21:22:36;;;;;;;;;;;7.20;99.90;;;;;;5068820;28;19919;-72
2022/12/17 21:25:08;;;;;;;;;;;7.20;99.90;;;;;;5075406;28;19933;-71
2022/12/17 21:27:33;;;;;;;;;;;7.20;99.90;;;;;;5062958;28;19913;-71
2022/12/17 21:29:59;;;;;;;;;;;7.20;99.90;;;;;;5059991;28;19998;-71
2022/12/17 21:32:25;;;;;;;;;;;7.20;99.90;;;;;;5076332;28;19987;-71
2022/12/17 21:34:50;;;;;;;;;;;7.20;99.90;;;;;;5073616;28;19920;-72
2022/12/17 21:37:16;;;;;;;;;;;7.30;99.90;;;;;;5064650;28;19912;-71
2022/12/17 21:39:45;;;;;;;;;;;7.20;99.90;;;;;;5069653;28;20309;-72
2022/12/17 21:44:55;;;;;;;;;;;7.20;99.90;;;;;;5061050;28;20286;-72
2022/12/17 21:47:21;;;;;;;;;;;7.10;99.90;;;;;;5062468;28;19995;-71
2022/12/17 21:49:50;;;;;;;;;;;7.20;99.90;;;;;;5059349;28;19923;-72
2022/12/17 21:52:16;;;;;;;;;;;7.10;99.90;;;;;;5057365;28;20462;-72
2022/12/17 21:54:42;;;;;;;;;;;7.10;99.90;;;;;;5061768;28;19924;-72
2022/12/17 21:57:07;;;;;;;;;;;7.10;99.90;;;;;;5071496;28;19913;-72
2022/12/17 21:59:33;;;;;;;;;;;7.10;99.90;;;;;;5062060;28;20324;-71
2022/12/17 22:01:59;;;;;;;;;;;7.00;99.90;;;;;;5057166;28;19912;-72
2022/12/17 22:04:25;;;;;;;;;;;6.90;99.90;;;;;;5074736;28;19935;-71
2022/12/17 22:06:51;;;;;;;;;;;6.90;99.90;;;;;;5072338;28;20003;-71
2022/12/17 22:09:16;;;;;;;;;;;6.90;99.90;;;;;;5073268;28;19908;-72
2022/12/17 22:11:42;;;;;;;;;;;7.00;99.90;;;;;;5059877;28;19917;-71
2022/12/17 22:14:10;;;;;;;;;;;7.00;99.90;;;;;;5071689;28;19916;-72
2022/12/17 22:16:45;;;;;;;;;;;6.90;99.90;;;;;;5068038;28;20276;-72
2022/12/17 22:19:16;;;;;;;;;;;6.90;99.90;;;;;;5074543;28;20281;-72
2022/12/17 22:21:42;;;;;;;;;;;6.90;99.90;;;;;;5055791;28;20308;-72
2022/12/17 22:24:15;;;;;;;;;;;6.90;99.90;;;;;;5058047;28;19912;-71
2022/12/17 22:26:41;;;;;;;;;;;6.90;99.90;;;;;;5060942;28;19952;-71
2022/12/17 22:29:06;;;;;;;;;;;6.90;99.90;;;;;;5068741;28;19912;-72
2022/12/17 22:34:16;;;;;;;;;;;6.90;99.90;;;;;;5062066;28;19958;-72
2022/12/17 22:36:42;;;;;;;;;;;6.80;99.90;;;;;;5061374;28;20298;-71
2022/12/17 22:39:09;;;;;;;;;;;6.80;99.90;;;;;;5073968;28;19917;-72
2022/12/17 22:44:19;;;;;;;;;;;6.80;99.90;;;;;;5070341;28;19969;-71
2022/12/17 22:46:44;;;;;;;;;;;6.80;99.90;;;;;;5051934;28;20160;-72
2022/12/17 22:49:10;;;;;;;;;;;6.80;99.90;;;;;;5073369;28;19913;-74
2022/12/17 22:51:36;;;;;;;;;;;6.80;99.90;;;;;;5074134;28;20006;-72
2022/12/17 22:54:03;;;;;;;;;;;6.80;99.90;;;;;;5063961;28;19912;-71
2022/12/17 22:56:28;;;;;;;;;;;6.80;99.90;;;;;;5089446;28;19919;-71
2022/12/17 22:58:54;;;;;;;;;;;6.80;99.90;;;;;;5066442;28;19912;-72
2022/12/17 23:01:20;;;;;;;;;;;6.80;99.90;;;;;;5071293;28;20015;-71
2022/12/17 23:03:45;;;;;;;;;;;6.90;99.90;;;;;;5068208;28;19916;-71
2022/12/17 23:06:12;;;;;;;;;;;6.80;99.90;;;;;;5068028;28;19919;-71
2022/12/17 23:08:38;;;;;;;;;;;6.80;99.90;;;;;;5073788;28;20019;-72
2022/12/17 23:11:05;;;;;;;;;;;6.80;99.90;;;;;;5058547;28;20404;-71
2022/12/17 23:13:31;;;;;;;;;;;6.70;99.90;;;;;;5070253;28;20315;-71
2022/12/17 23:15:56;;;;;;;;;;;6.70;99.90;;;;;;5050621;28;19920;-71
2022/12/17 23:18:22;;;;;;;;;;;6.80;99.90;;;;;;5068026;28;20011;-71
2022/12/17 23:20:48;;;;;;;;;;;6.70;99.90;;;;;;5057449;28;19952;-72
2022/12/17 23:23:13;;;;;;;;;;;6.70;99.90;;;;;;5069571;28;19927;-71
2022/12/17 23:25:42;;;;;;;;;;;6.70;99.90;;;;;;5074526;28;19915;-72
2022/12/17 23:28:08;;;;;;;;;;;6.70;99.90;;;;;;5073315;28;19939;-73
2022/12/17 23:30:35;;;;;;;;;;;6.70;99.90;;;;;;5054130;28;19995;-71
2022/12/17 23:33:00;;;;;;;;;;;6.60;99.90;;;;;;5058719;28;19913;-72
2022/12/17 23:35:26;;;;;;;;;;;6.60;99.90;;;;;;5066160;28;19913;-71
2022/12/17 23:37:52;;;;;;;;;;;6.60;99.90;;;;;;5061845;28;19974;-74
2022/12/17 23:40:18;;;;;;;;;;;6.60;99.90;;;;;;5062436;28;19956;-72
2022/12/17 23:42:43;;;;;;;;;;;6.60;99.90;;;;;;5056912;28;19964;-75
2022/12/17 23:45:10;;;;;;;;;;;6.60;99.90;;;;;;5053438;28;19909;-74
2022/12/17 23:47:36;;;;;;;;;;;6.60;99.90;;;;;;5059901;28;19913;-72
2022/12/17 23:50:02;;;;;;;;;;;6.60;99.90;;;;;;5067505;28;19934;-74
2022/12/17 23:52:28;;;;;;;;;;;6.60;99.90;;;;;;5053745;28;20397;-73
2022/12/17 23:54:54;;;;;;;;;;;6.60;99.90;;;;;;5061191;28;19909;-73
2022/12/17 23:57:19;;;;;;;;;;;6.60;99.90;;;;;;5070505;28;19999;-74
2022/12/17 23:59:45;;;;;;;;;;;6.50;99.90;;;;;;5070776;28;19935;-73
